Megalon — 3ETX2 — position and weather

sailwx.info

Track history (hours):
 
Tides and Currents Weather Stations Pressure Air Temp Water Temp Dewpoint Dewpoint Depression Visibility Wind Speed Wind Dir Waves Ship Positions

Megalon

Last reported at 2017-May-03 15:53 UTC. Time now 2017-Jun-25 10:25 UTC.
Position N 37°29' E 025°56'.
Warning: this ship's position is 52 days out of date.

Length 140 m; draft 8.7 m.

Type: Cargo ship. MMSI: 372427000.

Date/timePositionNaut miles runAvg speedWind from/ knotsBaromVisibWave heightAir tempDewpointWater temp
2017-May-03 15:53N 37°29' E 025°56'412.0
2017-May-03 15:30N 37°33' E 025°54'612.5
2017-May-03 15:00N 37°39' E 025°52'14211.8
2017-May-03 03:01N 40°01' E 026°02'144 8.8
2017-May-02 10:40N 40°58' E 028°56'1 3.0
2017-May-02 10:28N 40°58' E 028°57'2 4.4
2017-May-02 10:00N 40°59' E 028°59'  
2017-Apr-29 17:28N 46°22' E 030°55'612.0
2017-Apr-29 17:00N 46°28' E 030°55'510.6
2017-Apr-29 16:30N 46°33' E 030°58'2210.5
2017-Apr-29 14:22N 46°35' E 031°30'910.2
2017-Apr-29 13:30N 46°36' E 031°43'610.3
2017-Apr-29 12:55N 46°37' E 031°52'4 9.7
2017-Apr-29 12:30N 46°40' E 031°56'5 9.5
2017-Apr-29 12:00N 46°44' E 031°55'4 8.9
2017-Apr-29 11:30N 46°49' E 031°54'4 7.3
2017-Apr-29 11:00N 46°51' E 031°58'0 0.7
2017-Apr-29 10:30N 46°51' E 031°59'0 0.1
2017-Apr-29 09:58N 46°51' E 031°59'0 0.0
2017-Apr-29 09:28N 46°51' E 031°59'0 0.0
2017-Apr-29 08:58N 46°51' E 031°59'0 0.0
2017-Apr-29 08:28N 46°51' E 031°59'0 0.0
2017-Apr-29 07:52N 46°51' E 031°59'0 0.0
2017-Apr-29 07:28N 46°51' E 031°59'0 0.0
2017-Apr-29 06:58N 46°51' E 031°59'0 0.0
2017-Apr-29 06:28N 46°51' E 031°59'0 0.0
2017-Apr-29 05:58N 46°51' E 031°59'0 0.0
2017-Apr-29 05:28N 46°51' E 031°59'0 0.0
2017-Apr-29 04:58N 46°51' E 031°59'0 0.0
2017-Apr-29 04:28N 46°51' E 031°59'0 0.0
2017-Apr-29 03:58N 46°51' E 031°59'0 0.0
2017-Apr-29 03:28N 46°51' E 031°59'0 0.1
2017-Apr-29 02:58N 46°51' E 031°59'0 0.1
2017-Apr-29 02:28N 46°51' E 031°59'0 0.0
2017-Apr-29 01:58N 46°51' E 031°59'0 0.0
2017-Apr-29 01:28N 46°51' E 031°59'0 0.0
2017-Apr-29 00:58N 46°51' E 031°59'0 0.0
2017-Apr-29 00:25N 46°51' E 031°59'0 0.0
2017-Apr-28 23:58N 46°51' E 031°59'0 0.0
2017-Apr-28 23:28N 46°51' E 031°59'0 0.0
2017-Apr-28 22:58N 46°51' E 031°59'0 0.0
2017-Apr-28 22:28N 46°51' E 031°59'0 0.0
2017-Apr-28 21:58N 46°51' E 031°59'0 0.0
2017-Apr-28 21:28N 46°51' E 031°59'0 0.0
2017-Apr-28 20:58N 46°51' E 031°59'0 0.0
2017-Apr-28 20:28N 46°51' E 031°59'0 0.0
2017-Apr-28 19:55N 46°51' E 031°59'0 0.0
2017-Apr-28 19:28N 46°51' E 031°59'0 0.0
2017-Apr-28 18:58N 46°51' E 031°59'0 0.0
2017-Apr-28 18:28N 46°51' E 031°59'0 0.0
2017-Apr-28 17:58N 46°51' E 031°59'0 0.0
2017-Apr-28 17:25N 46°51' E 031°59'0 0.0
2017-Apr-28 16:58N 46°51' E 031°59'0 0.0
2017-Apr-28 16:28N 46°51' E 031°59'0 0.0
2017-Apr-28 15:58N 46°51' E 031°59'0 0.0
2017-Apr-28 15:28N 46°51' E 031°59'0 0.0
2017-Apr-28 14:58N 46°51' E 031°59'0 0.0
2017-Apr-28 13:58N 46°51' E 031°59'0 0.0
2017-Apr-28 13:28N 46°51' E 031°59'0 0.0
2017-Apr-28 12:58N 46°51' E 031°59'0 0.0
2017-Apr-28 12:28N 46°51' E 031°59'0 0.0
2017-Apr-28 11:55N 46°51' E 031°59'0 0.0
2017-Apr-28 11:28N 46°51' E 031°59'0 0.0
2017-Apr-28 10:55N 46°51' E 031°59'0 0.0
2017-Apr-28 10:28N 46°51' E 031°59'0 0.0
2017-Apr-28 09:58N 46°51' E 031°59'0 0.0
2017-Apr-28 09:28N 46°51' E 031°59'0 0.0
2017-Apr-28 08:58N 46°51' E 031°59'0 0.0
2017-Apr-28 08:28N 46°51' E 031°59'0 0.0
2017-Apr-28 07:58N 46°51' E 031°59'0 0.0
2017-Apr-28 07:28N 46°51' E 031°59'0 0.0
2017-Apr-28 06:58N 46°51' E 031°59'0 0.0
2017-Apr-28 06:28N 46°51' E 031°59'0 0.0
2017-Apr-28 05:58N 46°51' E 031°59'0 0.0
2017-Apr-28 05:28N 46°51' E 031°59'0 0.0
2017-Apr-28 04:58N 46°51' E 031°59'0 0.0
2017-Apr-28 04:28N 46°51' E 031°59'0 0.0
2017-Apr-28 03:58N 46°51' E 031°59'0 0.0
2017-Apr-28 03:28N 46°51' E 031°59'0 0.0
2017-Apr-28 02:58N 46°51' E 031°59'0 0.0
2017-Apr-28 02:28N 46°51' E 031°59'0 0.0
2017-Apr-28 01:58N 46°51' E 031°59'0 0.0
2017-Apr-28 01:28N 46°51' E 031°59'0 0.0
2017-Apr-28 00:58N 46°51' E 031°59'0 0.0
2017-Apr-28 00:28N 46°51' E 031°59'0 0.0
2017-Apr-27 23:58N 46°51' E 031°59'0 0.0
2017-Apr-27 23:28N 46°51' E 031°59'0 0.0
2017-Apr-27 22:58N 46°51' E 031°59'0 0.0
2017-Apr-27 22:28N 46°51' E 031°59'0 0.0
2017-Apr-27 21:58N 46°51' E 031°59'0 0.0
2017-Apr-27 21:28N 46°51' E 031°59'0 0.0
2017-Apr-27 20:58N 46°51' E 031°59'0 0.0
2017-Apr-27 20:28N 46°51' E 031°59'0 0.0
2017-Apr-27 19:58N 46°51' E 031°59'0 0.0
2017-Apr-27 19:28N 46°51' E 031°59'0 0.0
2017-Apr-27 18:58N 46°51' E 031°59'0 0.0
2017-Apr-27 18:28N 46°51' E 031°59'0 0.0
2017-Apr-27 17:58N 46°51' E 031°59'0 0.0
2017-Apr-27 17:28N 46°51' E 031°59'0 0.0
2017-Apr-27 16:55N 46°51' E 031°59'0 0.0
2017-Apr-27 16:28N 46°51' E 031°59'0 0.0
2017-Apr-27 15:58N 46°51' E 031°59'0 0.0
2017-Apr-27 15:28N 46°51' E 031°59'0 0.0
2017-Apr-27 14:58N 46°51' E 031°59'0 0.0
2017-Apr-27 13:58N 46°51' E 031°59'0 0.0
2017-Apr-27 06:34N 46°51' E 031°59'0 0.1
2017-Apr-27 06:28N 46°51' E 031°59'0 0.0
2017-Apr-27 05:49N 46°51' E 031°59'0 0.0
2017-Apr-27 05:28N 46°51' E 031°59'0 0.0
2017-Apr-27 04:58N 46°51' E 031°59'0 0.0
2017-Apr-27 04:28N 46°51' E 031°59'0 0.0
2017-Apr-27 03:58N 46°51' E 031°59'0 0.0
2017-Apr-27 03:28N 46°51' E 031°59'0 0.0
2017-Apr-27 02:58N 46°51' E 031°59'0 0.0
2017-Apr-27 02:28N 46°51' E 031°59'0 0.0
2017-Apr-27 01:58N 46°51' E 031°59'0 0.0
2017-Apr-27 01:28N 46°51' E 031°59'0 0.0
2017-Apr-27 00:58N 46°51' E 031°59'0 0.0
2017-Apr-27 00:28N 46°51' E 031°59'0 0.0
2017-Apr-26 23:58N 46°51' E 031°59'0 0.0
2017-Apr-26 23:28N 46°51' E 031°59'0 0.0
2017-Apr-26 22:58N 46°51' E 031°59'0 0.0
2017-Apr-26 22:28N 46°51' E 031°59'0 0.0
2017-Apr-26 21:58N 46°51' E 031°59'0 0.1
2017-Apr-26 21:28N 46°51' E 031°59'0 0.1
2017-Apr-26 20:58N 46°51' E 031°59'0 0.0
2017-Apr-26 20:28N 46°51' E 031°59'0 0.0
2017-Apr-26 19:58N 46°51' E 031°59'0 0.0
2017-Apr-26 19:28N 46°51' E 031°59'0 0.0
2017-Apr-26 18:58N 46°51' E 031°59'0 0.0
2017-Apr-26 18:28N 46°51' E 031°59'0 0.8
2017-Apr-26 18:00N 46°51' E 031°58'0 0.6
2017-Apr-26 17:28N 46°52' E 031°58'0 0.1
2017-Apr-26 16:58N 46°52' E 031°58'0 0.0
2017-Apr-26 16:28N 46°52' E 031°58'0 0.0
2017-Apr-26 15:58N 46°52' E 031°58'0 0.0
2017-Apr-26 15:28N 46°52' E 031°58'0 0.0
2017-Apr-26 14:58N 46°52' E 031°58'0 0.0
2017-Apr-26 13:52N 46°52' E 031°58'0 0.0
2017-Apr-26 13:28N 46°52' E 031°58'0 0.0
2017-Apr-26 12:58N 46°52' E 031°58'0 0.0
2017-Apr-26 12:28N 46°52' E 031°58'0 0.0
2017-Apr-26 11:58N 46°52' E 031°58'0 0.0
2017-Apr-26 11:28N 46°52' E 031°58'0 0.0
2017-Apr-26 10:58N 46°52' E 031°58'0 0.0
2017-Apr-26 10:28N 46°52' E 031°58'0 0.0
2017-Apr-26 09:58N 46°52' E 031°58'0 0.0
2017-Apr-26 09:28N 46°52' E 031°58'0 0.1
2017-Apr-26 08:58N 46°52' E 031°58'0 0.0
2017-Apr-26 08:28N 46°52' E 031°58'0 0.0
2017-Apr-26 07:58N 46°52' E 031°58'0 0.0
2017-Apr-26 07:28N 46°52' E 031°58'0 0.0
2017-Apr-26 06:58N 46°52' E 031°58'0 0.0
2017-Apr-26 06:28N 46°52' E 031°58'0 0.0
2017-Apr-26 05:58N 46°52' E 031°58'0 0.0
2017-Apr-26 05:28N 46°52' E 031°58'0 0.0
2017-Apr-26 04:58N 46°52' E 031°58'0 0.0
2017-Apr-26 04:28N 46°52' E 031°58'0 0.0
2017-Apr-26 03:58N 46°52' E 031°58'0 0.0
2017-Apr-26 03:28N 46°52' E 031°58'0 0.0
2017-Apr-26 02:58N 46°52' E 031°58'0 0.0
2017-Apr-26 02:28N 46°52' E 031°58'0 0.0
2017-Apr-26 01:58N 46°52' E 031°58'0 0.0
2017-Apr-26 01:28N 46°52' E 031°58'0 0.0
2017-Apr-26 00:58N 46°52' E 031°58'0 0.0
2017-Apr-26 00:28N 46°52' E 031°58'0 0.0
2017-Apr-25 23:58N 46°52' E 031°58'0 0.0
2017-Apr-25 23:28N 46°52' E 031°58'0 0.0
2017-Apr-25 22:58N 46°52' E 031°58'0 0.0
2017-Apr-25 22:28N 46°52' E 031°58'0 0.0
2017-Apr-25 21:55N 46°52' E 031°58'0 0.0
2017-Apr-25 21:28N 46°52' E 031°58'0 0.0
2017-Apr-25 20:55N 46°52' E 031°58'0 0.0
2017-Apr-25 20:28N 46°52' E 031°58'0 0.0
2017-Apr-25 19:58N 46°52' E 031°58'0 0.0
2017-Apr-25 19:28N 46°52' E 031°58'0 0.0
2017-Apr-25 18:58N 46°52' E 031°58'0 0.0
2017-Apr-25 18:28N 46°52' E 031°58'0 0.0
2017-Apr-25 17:58N 46°52' E 031°58'0 0.0
2017-Apr-25 17:28N 46°52' E 031°58'0 0.0
2017-Apr-25 16:58N 46°52' E 031°58'0 0.0
2017-Apr-25 16:28N 46°52' E 031°58'0 0.0
2017-Apr-25 15:58N 46°52' E 031°58'0 0.0
2017-Apr-25 15:28N 46°52' E 031°58'0 0.0
2017-Apr-25 14:58N 46°52' E 031°58'0 0.5
2017-Apr-25 14:00N 46°51' E 031°58'3 6.5
2017-Apr-25 13:30N 46°49' E 031°54'5 9.5
2017-Apr-25 13:00N 46°44' E 031°55'4 7.3
2017-Apr-25 12:30N 46°41' E 031°56'5 9.9
2017-Apr-25 11:59N 46°37' E 031°51'611.6
2017-Apr-25 11:30N 46°36' E 031°43'3211.0
2017-Apr-25 08:36N 46°33' E 030°57'1 6.2
2017-Apr-25 08:30N 46°32' E 030°57'3 5.3
2017-Apr-25 07:57N 46°29' E 030°57'2 3.9
2017-Apr-25 07:30N 46°27' E 030°57'6 3.3
2017-Apr-25 05:46N 46°22' E 031°01'  
Track history (hours):
 
Tides and Currents Weather Stations Pressure Air Temp Water Temp Dewpoint Dewpoint Depression Visibility Wind Speed Wind Dir Waves Ship Positions

Megalon

Last reported at 2017-May-03 15:53 UTC. Time now 2017-Jun-25 10:25 UTC.
Position N 37°29' E 025°56'.
Warning: this ship's position is 52 days out of date.

Length 140 m; draft 8.7 m.

Type: Cargo ship. MMSI: 372427000.

Date/timePositionNaut miles runAvg speedWind from/ knotsBaromVisibWave heightAir tempDewpointWater temp
2017-May-03 15:53N 37°29' E 025°56'412.0
2017-May-03 15:30N 37°33' E 025°54'612.5
2017-May-03 15:00N 37°39' E 025°52'14211.8
2017-May-03 03:01N 40°01' E 026°02'144 8.8
2017-May-02 10:40N 40°58' E 028°56'1 3.0
2017-May-02 10:28N 40°58' E 028°57'2 4.4
2017-May-02 10:00N 40°59' E 028°59'  
2017-Apr-29 17:28N 46°22' E 030°55'612.0
2017-Apr-29 17:00N 46°28' E 030°55'510.6
2017-Apr-29 16:30N 46°33' E 030°58'2210.5
2017-Apr-29 14:22N 46°35' E 031°30'910.2
2017-Apr-29 13:30N 46°36' E 031°43'610.3
2017-Apr-29 12:55N 46°37' E 031°52'4 9.7
2017-Apr-29 12:30N 46°40' E 031°56'5 9.5
2017-Apr-29 12:00N 46°44' E 031°55'4 8.9
2017-Apr-29 11:30N 46°49' E 031°54'4 7.3
2017-Apr-29 11:00N 46°51' E 031°58'0 0.7
2017-Apr-29 10:30N 46°51' E 031°59'0 0.1
2017-Apr-29 09:58N 46°51' E 031°59'0 0.0
2017-Apr-29 09:28N 46°51' E 031°59'0 0.0
2017-Apr-29 08:58N 46°51' E 031°59'0 0.0
2017-Apr-29 08:28N 46°51' E 031°59'0 0.0
2017-Apr-29 07:52N 46°51' E 031°59'0 0.0
2017-Apr-29 07:28N 46°51' E 031°59'0 0.0
2017-Apr-29 06:58N 46°51' E 031°59'0 0.0
2017-Apr-29 06:28N 46°51' E 031°59'0 0.0
2017-Apr-29 05:58N 46°51' E 031°59'0 0.0
2017-Apr-29 05:28N 46°51' E 031°59'0 0.0
2017-Apr-29 04:58N 46°51' E 031°59'0 0.0
2017-Apr-29 04:28N 46°51' E 031°59'0 0.0
2017-Apr-29 03:58N 46°51' E 031°59'0 0.0
2017-Apr-29 03:28N 46°51' E 031°59'0 0.1
2017-Apr-29 02:58N 46°51' E 031°59'0 0.1
2017-Apr-29 02:28N 46°51' E 031°59'0 0.0
2017-Apr-29 01:58N 46°51' E 031°59'0 0.0
2017-Apr-29 01:28N 46°51' E 031°59'0 0.0
2017-Apr-29 00:58N 46°51' E 031°59'0 0.0
2017-Apr-29 00:25N 46°51' E 031°59'0 0.0
2017-Apr-28 23:58N 46°51' E 031°59'0 0.0
2017-Apr-28 23:28N 46°51' E 031°59'0 0.0
2017-Apr-28 22:58N 46°51' E 031°59'0 0.0
2017-Apr-28 22:28N 46°51' E 031°59'0 0.0
2017-Apr-28 21:58N 46°51' E 031°59'0 0.0
2017-Apr-28 21:28N 46°51' E 031°59'0 0.0
2017-Apr-28 20:58N 46°51' E 031°59'0 0.0
2017-Apr-28 20:28N 46°51' E 031°59'0 0.0
2017-Apr-28 19:55N 46°51' E 031°59'0 0.0
2017-Apr-28 19:28N 46°51' E 031°59'0 0.0
2017-Apr-28 18:58N 46°51' E 031°59'0 0.0
2017-Apr-28 18:28N 46°51' E 031°59'0 0.0
2017-Apr-28 17:58N 46°51' E 031°59'0 0.0
2017-Apr-28 17:25N 46°51' E 031°59'0 0.0
2017-Apr-28 16:58N 46°51' E 031°59'0 0.0
2017-Apr-28 16:28N 46°51' E 031°59'0 0.0
2017-Apr-28 15:58N 46°51' E 031°59'0 0.0
2017-Apr-28 15:28N 46°51' E 031°59'0 0.0
2017-Apr-28 14:58N 46°51' E 031°59'0 0.0
2017-Apr-28 13:58N 46°51' E 031°59'0 0.0
2017-Apr-28 13:28N 46°51' E 031°59'0 0.0
2017-Apr-28 12:58N 46°51' E 031°59'0 0.0
2017-Apr-28 12:28N 46°51' E 031°59'0 0.0
2017-Apr-28 11:55N 46°51' E 031°59'0 0.0
2017-Apr-28 11:28N 46°51' E 031°59'0 0.0
2017-Apr-28 10:55N 46°51' E 031°59'0 0.0
2017-Apr-28 10:28N 46°51' E 031°59'0 0.0
2017-Apr-28 09:58N 46°51' E 031°59'0 0.0
2017-Apr-28 09:28N 46°51' E 031°59'0 0.0
2017-Apr-28 08:58N 46°51' E 031°59'0 0.0
2017-Apr-28 08:28N 46°51' E 031°59'0 0.0
2017-Apr-28 07:58N 46°51' E 031°59'0 0.0
2017-Apr-28 07:28N 46°51' E 031°59'0 0.0
2017-Apr-28 06:58N 46°51' E 031°59'0 0.0
2017-Apr-28 06:28N 46°51' E 031°59'0 0.0
2017-Apr-28 05:58N 46°51' E 031°59'0 0.0
2017-Apr-28 05:28N 46°51' E 031°59'0 0.0
2017-Apr-28 04:58N 46°51' E 031°59'0 0.0
2017-Apr-28 04:28N 46°51' E 031°59'0 0.0
2017-Apr-28 03:58N 46°51' E 031°59'0 0.0
2017-Apr-28 03:28N 46°51' E 031°59'0 0.0
2017-Apr-28 02:58N 46°51' E 031°59'0 0.0
2017-Apr-28 02:28N 46°51' E 031°59'0 0.0
2017-Apr-28 01:58N 46°51' E 031°59'0 0.0
2017-Apr-28 01:28N 46°51' E 031°59'0 0.0
2017-Apr-28 00:58N 46°51' E 031°59'0 0.0
2017-Apr-28 00:28N 46°51' E 031°59'0 0.0
2017-Apr-27 23:58N 46°51' E 031°59'0 0.0
2017-Apr-27 23:28N 46°51' E 031°59'0 0.0
2017-Apr-27 22:58N 46°51' E 031°59'0 0.0
2017-Apr-27 22:28N 46°51' E 031°59'0 0.0
2017-Apr-27 21:58N 46°51' E 031°59'0 0.0
2017-Apr-27 21:28N 46°51' E 031°59'0 0.0
2017-Apr-27 20:58N 46°51' E 031°59'0 0.0
2017-Apr-27 20:28N 46°51' E 031°59'0 0.0
2017-Apr-27 19:58N 46°51' E 031°59'0 0.0
2017-Apr-27 19:28N 46°51' E 031°59'0 0.0
2017-Apr-27 18:58N 46°51' E 031°59'0 0.0
2017-Apr-27 18:28N 46°51' E 031°59'0 0.0
2017-Apr-27 17:58N 46°51' E 031°59'0 0.0
2017-Apr-27 17:28N 46°51' E 031°59'0 0.0
2017-Apr-27 16:55N 46°51' E 031°59'0 0.0
2017-Apr-27 16:28N 46°51' E 031°59'0 0.0
2017-Apr-27 15:58N 46°51' E 031°59'0 0.0
2017-Apr-27 15:28N 46°51' E 031°59'0 0.0
2017-Apr-27 14:58N 46°51' E 031°59'0 0.0
2017-Apr-27 13:58N 46°51' E 031°59'0 0.0
2017-Apr-27 06:34N 46°51' E 031°59'0 0.1
2017-Apr-27 06:28N 46°51' E 031°59'0 0.0
2017-Apr-27 05:49N 46°51' E 031°59'0 0.0
2017-Apr-27 05:28N 46°51' E 031°59'0 0.0
2017-Apr-27 04:58N 46°51' E 031°59'0 0.0
2017-Apr-27 04:28N 46°51' E 031°59'0 0.0
2017-Apr-27 03:58N 46°51' E 031°59'0 0.0
2017-Apr-27 03:28N 46°51' E 031°59'0 0.0
2017-Apr-27 02:58N 46°51' E 031°59'0 0.0
2017-Apr-27 02:28N 46°51' E 031°59'0 0.0
2017-Apr-27 01:58N 46°51' E 031°59'0 0.0
2017-Apr-27 01:28N 46°51' E 031°59'0 0.0
2017-Apr-27 00:58N 46°51' E 031°59'0 0.0
2017-Apr-27 00:28N 46°51' E 031°59'0 0.0
2017-Apr-26 23:58N 46°51' E 031°59'0 0.0
2017-Apr-26 23:28N 46°51' E 031°59'0 0.0
2017-Apr-26 22:58N 46°51' E 031°59'0 0.0
2017-Apr-26 22:28N 46°51' E 031°59'0 0.0
2017-Apr-26 21:58N 46°51' E 031°59'0 0.1
2017-Apr-26 21:28N 46°51' E 031°59'0 0.1
2017-Apr-26 20:58N 46°51' E 031°59'0 0.0
2017-Apr-26 20:28N 46°51' E 031°59'0 0.0
2017-Apr-26 19:58N 46°51' E 031°59'0 0.0
2017-Apr-26 19:28N 46°51' E 031°59'0 0.0
2017-Apr-26 18:58N 46°51' E 031°59'0 0.0
2017-Apr-26 18:28N 46°51' E 031°59'0 0.8
2017-Apr-26 18:00N 46°51' E 031°58'0 0.6
2017-Apr-26 17:28N 46°52' E 031°58'0 0.1
2017-Apr-26 16:58N 46°52' E 031°58'0 0.0
2017-Apr-26 16:28N 46°52' E 031°58'0 0.0
2017-Apr-26 15:58N 46°52' E 031°58'0 0.0
2017-Apr-26 15:28N 46°52' E 031°58'0 0.0
2017-Apr-26 14:58N 46°52' E 031°58'0 0.0
2017-Apr-26 13:52N 46°52' E 031°58'0 0.0
2017-Apr-26 13:28N 46°52' E 031°58'0 0.0
2017-Apr-26 12:58N 46°52' E 031°58'0 0.0
2017-Apr-26 12:28N 46°52' E 031°58'0 0.0
2017-Apr-26 11:58N 46°52' E 031°58'0 0.0
2017-Apr-26 11:28N 46°52' E 031°58'0 0.0
2017-Apr-26 10:58N 46°52' E 031°58'0 0.0
2017-Apr-26 10:28N 46°52' E 031°58'0 0.0
2017-Apr-26 09:58N 46°52' E 031°58'0 0.0
2017-Apr-26 09:28N 46°52' E 031°58'0 0.1
2017-Apr-26 08:58N 46°52' E 031°58'0 0.0
2017-Apr-26 08:28N 46°52' E 031°58'0 0.0
2017-Apr-26 07:58N 46°52' E 031°58'0 0.0
2017-Apr-26 07:28N 46°52' E 031°58'0 0.0
2017-Apr-26 06:58N 46°52' E 031°58'0 0.0
2017-Apr-26 06:28N 46°52' E 031°58'0 0.0
2017-Apr-26 05:58N 46°52' E 031°58'0 0.0
2017-Apr-26 05:28N 46°52' E 031°58'0 0.0
2017-Apr-26 04:58N 46°52' E 031°58'0 0.0
2017-Apr-26 04:28N 46°52' E 031°58'0 0.0
2017-Apr-26 03:58N 46°52' E 031°58'0 0.0
2017-Apr-26 03:28N 46°52' E 031°58'0 0.0
2017-Apr-26 02:58N 46°52' E 031°58'0 0.0
2017-Apr-26 02:28N 46°52' E 031°58'0 0.0
2017-Apr-26 01:58N 46°52' E 031°58'0 0.0
2017-Apr-26 01:28N 46°52' E 031°58'0 0.0
2017-Apr-26 00:58N 46°52' E 031°58'0 0.0
2017-Apr-26 00:28N 46°52' E 031°58'0 0.0
2017-Apr-25 23:58N 46°52' E 031°58'0 0.0
2017-Apr-25 23:28N 46°52' E 031°58'0 0.0
2017-Apr-25 22:58N 46°52' E 031°58'0 0.0
2017-Apr-25 22:28N 46°52' E 031°58'0 0.0
2017-Apr-25 21:55N 46°52' E 031°58'0 0.0
2017-Apr-25 21:28N 46°52' E 031°58'0 0.0
2017-Apr-25 20:55N 46°52' E 031°58'0 0.0
2017-Apr-25 20:28N 46°52' E 031°58'0 0.0
2017-Apr-25 19:58N 46°52' E 031°58'0 0.0
2017-Apr-25 19:28N 46°52' E 031°58'0 0.0
2017-Apr-25 18:58N 46°52' E 031°58'0 0.0
2017-Apr-25 18:28N 46°52' E 031°58'0 0.0
2017-Apr-25 17:58N 46°52' E 031°58'0 0.0
2017-Apr-25 17:28N 46°52' E 031°58'0 0.0
2017-Apr-25 16:58N 46°52' E 031°58'0 0.0
2017-Apr-25 16:28N 46°52' E 031°58'0 0.0
2017-Apr-25 15:58N 46°52' E 031°58'0 0.0
2017-Apr-25 15:28N 46°52' E 031°58'0 0.0
2017-Apr-25 14:58N 46°52' E 031°58'0 0.5
2017-Apr-25 14:00N 46°51' E 031°58'3 6.5
2017-Apr-25 13:30N 46°49' E 031°54'5 9.5
2017-Apr-25 13:00N 46°44' E 031°55'4 7.3
2017-Apr-25 12:30N 46°41' E 031°56'5 9.9
2017-Apr-25 11:59N 46°37' E 031°51'611.6
2017-Apr-25 11:30N 46°36' E 031°43'3211.0
2017-Apr-25 08:36N 46°33' E 030°57'1 6.2
2017-Apr-25 08:30N 46°32' E 030°57'3 5.3
2017-Apr-25 07:57N 46°29' E 030°57'2 3.9
2017-Apr-25 07:30N 46°27' E 030°57'6 3.3
2017-Apr-25 05:46N 46°22' E 031°01'  

Dump ship's entire track history